Time;durP1;ratioP1;P1;durP2;ratioP2;P2;SDS_P1;SDS_P2;PMS_P1;PMS_P2;Temp;Humidity;BMP_temperature;BMP_pressure;BME280_temperature;BME280_humidity;BME280_pressure;Samples;Min_cycle;Max_cycle;Signal;HPM_P1;HPM_P2
2022/09/24 00:01:38;;;;;;;11.00;5.53;;;;;;;8.35;100.00;100304.36;1709761;83;21082;-69
2022/09/24 00:04:10;;;;;;;9.93;5.47;;;;;;;8.31;100.00;100296.39;1710267;83;21123;-69
2022/09/24 00:06:43;;;;;;;8.55;5.30;;;;;;;8.23;100.00;100301.81;1714163;83;21242;-69
2022/09/24 00:09:13;;;;;;;8.18;5.58;;;;;;;8.25;100.00;100305.60;1699448;83;21084;-70
2022/09/24 00:11:44;;;;;;;12.45;5.45;;;;;;;8.25;100.00;100304.32;1708703;83;21070;-70
2022/09/24 00:14:12;;;;;;;9.13;5.58;;;;;;;8.19;100.00;100304.95;1715587;83;21059;-70
2022/09/24 00:16:41;;;;;;;10.23;5.78;;;;;;;8.18;100.00;100309.69;1709228;83;21059;-69
2022/09/24 00:19:09;;;;;;;10.03;5.03;;;;;;;8.16;100.00;100306.34;1723230;83;21039;-70
2022/09/24 00:21:37;;;;;;;7.78;5.45;;;;;;;8.18;100.00;100308.41;1714801;83;21059;-70
2022/09/24 00:27:01;;;;;;;9.48;6.28;;;;;;;8.20;100.00;100303.22;1704843;83;21058;-69
2022/09/24 00:29:33;;;;;;;9.50;6.03;;;;;;;8.25;100.00;100300.02;1705550;83;21095;-70
2022/09/24 00:31:59;;;;;;;10.60;6.22;;;;;;;8.28;100.00;100294.79;1720712;83;21058;-70
2022/09/24 00:34:26;;;;;;;12.88;6.67;;;;;;;8.23;100.00;100301.81;1698030;83;21022;-70
2022/09/24 00:36:53;;;;;;;20.10;9.18;;;;;;;8.19;100.00;100306.23;1708749;82;21514;-70
2022/09/24 00:39:20;;;;;;;27.07;10.03;;;;;;;8.19;100.00;100297.27;1699823;83;21090;-70
2022/09/24 00:41:47;;;;;;;20.50;9.15;;;;;;;8.15;100.00;100294.42;1714110;83;21113;-70
2022/09/24 00:44:49;;;;;;;19.05;9.23;;;;;;;8.11;100.00;100301.84;1695553;83;21610;-70
2022/09/24 00:47:27;;;;;;;9.93;5.12;;;;;;;8.05;100.00;100299.52;1716718;83;21038;-70
2022/09/24 00:50:09;;;;;;;7.50;5.15;;;;;;;7.92;100.00;100290.13;1704257;83;21530;-70
2022/09/24 00:52:43;;;;;;;7.62;5.20;;;;;;;7.86;100.00;100289.08;1716638;83;21087;-70
2022/09/24 00:55:12;;;;;;;5.90;4.70;;;;;;;7.84;100.00;100283.17;1715715;83;21042;-70
2022/09/24 00:57:42;;;;;;;6.75;4.60;;;;;;;7.83;100.00;100281.06;1722064;83;21043;-70
2022/09/24 01:00:11;;;;;;;7.62;5.05;;;;;;;7.83;100.00;100281.52;1707873;83;21101;-69
2022/09/24 01:02:43;;;;;;;7.58;5.30;;;;;;;7.80;100.00;100278.59;1710669;83;21559;-70
2022/09/24 01:05:10;;;;;;;9.20;5.12;;;;;;;7.77;100.00;100276.16;1714366;83;21563;-70
2022/09/24 01:07:37;;;;;;;6.95;4.62;;;;;;;7.76;100.00;100273.19;1711421;83;21133;-70
2022/09/24 01:10:05;;;;;;;9.95;5.08;;;;;;;7.71;100.00;100271.71;1702292;83;21059;-70
2022/09/24 01:12:44;;;;;;;10.48;5.03;;;;;;;7.69;100.00;100281.18;1709167;83;21043;-70
2022/09/24 01:15:20;;;;;;;6.65;4.53;;;;;;;7.67;100.00;100270.98;1717784;83;21071;-70
2022/09/24 01:18:10;;;;;;;8.23;4.95;;;;;;;7.60;100.00;100270.80;1710006;83;21034;-70
2022/09/24 01:21:15;;;;;;;10.18;4.90;;;;;;;7.61;100.00;100262.23;1690860;83;21124;-69
2022/09/24 01:24:02;;;;;;;7.20;4.78;;;;;;;7.60;100.00;100258.84;1691376;83;21028;-70
2022/09/24 01:26:56;;;;;;;6.05;4.22;;;;;;;7.60;100.00;100252.44;1698411;83;21094;-69
2022/09/24 01:29:42;;;;;;;8.88;4.78;;;;;;;7.60;100.00;100246.45;1640688;83;21192;-70
2022/09/24 01:32:50;;;;;;;7.00;4.75;;;;;;;7.59;100.00;100245.62;1705210;83;21039;-70
2022/09/24 01:35:25;;;;;;;6.53;4.65;;;;;;;7.57;100.00;100243.57;1704861;83;21538;-70
2022/09/24 01:38:03;;;;;;;9.60;5.28;;;;;;;7.54;100.00;100246.67;1710595;83;21114;-70
2022/09/24 01:40:31;;;;;;;11.30;5.65;;;;;;;7.49;100.00;100240.90;1718093;83;21126;-70
2022/09/24 01:43:01;;;;;;;12.98;6.70;;;;;;;7.47;100.00;100245.24;1702335;83;21109;-69
2022/09/24 01:45:31;;;;;;;8.93;5.65;;;;;;;7.42;100.00;100246.23;1713560;83;21048;-69
2022/09/24 01:47:59;;;;;;;8.78;5.87;;;;;;;7.41;100.00;100241.99;1705236;83;21090;-70
2022/09/24 01:50:31;;;;;;;9.98;5.87;;;;;;;7.39;100.00;100240.38;1706051;83;21035;-69
2022/09/24 01:53:16;;;;;;;8.23;5.35;;;;;;;7.36;100.00;100236.22;1695979;83;21043;-71
2022/09/24 01:55:48;;;;;;;11.18;6.20;;;;;;;7.34;100.00;100235.44;1703777;83;21569;-70
2022/09/24 01:58:36;;;;;;;10.50;5.78;;;;;;;7.31;100.00;100225.28;1704732;83;21043;-70
2022/09/24 02:01:08;;;;;;;10.23;5.45;;;;;;;7.42;100.00;100223.61;1715391;83;21582;-70
2022/09/24 02:03:42;;;;;;;12.98;6.78;;;;;;;7.52;100.00;100231.39;1703172;83;21527;-69
2022/09/24 02:06:17;;;;;;;;;;;;;;;7.30;100.00;100219.78;1707373;83;21095;-69
2022/09/24 02:08:47;;;;;;;11.50;6.40;;;;;;;7.32;100.00;100219.71;1719926;83;20131;-69
2022/09/24 02:11:23;;;;;;;10.08;6.03;;;;;;;7.25;100.00;100215.25;1697695;83;21058;-70
2022/09/24 02:13:59;;;;;;;11.65;6.28;;;;;;;7.30;100.00;100211.25;1710177;83;21020;-70
2022/09/24 02:16:31;;;;;;;11.68;6.10;;;;;;;7.22;100.00;100210.27;1699329;83;21095;-69
2022/09/24 02:19:04;;;;;;;10.75;6.60;;;;;;;7.18;100.00;100212.09;1716372;83;21039;-70
2022/09/24 02:21:34;;;;;;;11.73;6.50;;;;;;;7.35;100.00;100217.05;1703690;83;22668;-70
2022/09/24 02:24:14;;;;;;;15.53;7.03;;;;;;;7.14;100.00;100223.32;1704201;83;21026;-69
2022/09/24 02:26:42;;;;;;;12.10;7.17;;;;;;;7.10;100.00;100220.93;1703221;83;21083;-70
2022/09/24 02:29:09;;;;;;;13.15;6.90;;;;;;;7.10;100.00;100221.75;1720703;83;21114;-70
2022/09/24 02:31:49;;;;;;;14.60;7.85;;;;;;;7.10;100.00;100226.05;1705078;83;21570;-70
2022/09/24 02:34:30;;;;;;;14.18;7.50;;;;;;;7.08;100.00;100235.05;1699408;83;22228;-69
2022/09/24 02:37:08;;;;;;;10.00;6.80;;;;;;;7.06;100.00;100236.83;1705807;82;22210;-70
2022/09/24 02:39:35;;;;;;;11.12;6.90;;;;;;;7.00;100.00;100235.75;1709479;83;21058;-70
2022/09/24 02:42:04;;;;;;;16.40;8.80;;;;;;;6.93;100.00;100236.38;1713853;83;21053;-70
2022/09/24 02:44:33;;;;;;;10.75;6.92;;;;;;;6.87;100.00;100239.14;1712793;83;21241;-70
2022/09/24 02:47:00;;;;;;;11.95;7.20;;;;;;;6.81;100.00;100237.65;1699615;83;21062;-70
2022/09/24 02:49:29;;;;;;;14.70;8.10;;;;;;;7.08;100.00;100238.06;1698052;83;21106;-70
2022/09/24 02:51:56;;;;;;;11.00;6.92;;;;;;;7.11;100.00;100249.45;1704501;83;21085;-70
2022/09/24 02:54:24;;;;;;;10.18;7.00;;;;;;;7.10;100.00;100251.64;1715335;83;21007;-70
2022/09/24 02:56:51;;;;;;;11.55;7.45;;;;;;;7.10;100.00;100257.59;1705387;83;21054;-70
2022/09/24 02:59:19;;;;;;;11.03;7.33;;;;;;;6.96;100.00;100264.44;1715125;83;21324;-69
2022/09/24 03:01:46;;;;;;;11.48;7.00;;;;;;;7.05;100.00;100258.63;1718432;83;21067;-70
2022/09/24 03:04:14;;;;;;;10.45;7.28;;;;;;;6.90;100.00;100272.77;1711553;83;21480;-69
2022/09/24 03:06:42;;;;;;;11.65;7.40;;;;;;;6.74;100.00;100271.14;1719650;83;21059;-71
2022/09/24 03:09:11;;;;;;;9.53;6.55;;;;;;;6.71;100.00;100268.25;1716712;83;21126;-70
2022/09/24 03:11:39;;;;;;;11.70;7.40;;;;;;;6.68;100.00;100267.50;1709739;83;21075;-70
2022/09/24 03:14:06;;;;;;;12.18;7.47;;;;;;;6.62;100.00;100274.47;1714637;83;21543;-71
2022/09/24 03:16:33;;;;;;;10.80;7.00;;;;;;;6.57;100.00;100276.80;1717311;83;21114;-70
2022/09/24 03:19:01;;;;;;;10.08;7.08;;;;;;;6.52;100.00;100270.98;1706314;83;21047;-70
2022/09/24 03:21:28;;;;;;;11.80;7.30;;;;;;;6.48;100.00;100275.80;1703405;83;21034;-71
2022/09/24 03:23:55;;;;;;;14.10;8.43;;;;;;;6.42;100.00;100274.26;1710850;83;21051;-70
2022/09/24 03:26:23;;;;;;;12.37;8.23;;;;;;;6.41;100.00;100271.33;1711630;83;21098;-70
2022/09/24 03:28:51;;;;;;;13.53;6.97;;;;;;;6.42;100.00;100266.59;1710979;83;21115;-70
2022/09/24 03:31:18;;;;;;;12.93;6.80;;;;;;;6.42;100.00;100261.48;1705806;83;21042;-70
2022/09/24 03:33:48;;;;;;;12.13;7.20;;;;;;;6.45;100.00;100263.09;1715107;83;21573;-70
2022/09/24 03:36:23;;;;;;;11.22;7.20;;;;;;;6.49;100.00;100258.28;1706076;82;21247;-70
2022/09/24 03:38:55;;;;;;;11.03;6.97;;;;;;;6.51;100.00;100262.91;1706813;83;21059;-71
2022/09/24 03:41:24;;;;;;;13.75;7.20;;;;;;;6.51;100.00;100259.92;1697511;83;21537;-70
2022/09/24 03:43:51;;;;;;;11.10;7.20;;;;;;;6.56;100.00;100261.88;1717591;83;21543;-69
2022/09/24 03:46:18;;;;;;;11.57;6.65;;;;;;;6.59;100.00;100264.36;1707098;83;21059;-70
2022/09/24 03:48:46;;;;;;;10.28;6.90;;;;;;;6.59;100.00;100267.36;1699360;83;21074;-70
2022/09/24 03:51:20;;;;;;;11.80;6.28;;;;;;;6.59;100.00;100269.92;1697001;83;21566;-70
2022/09/24 03:53:47;;;;;;;12.60;7.22;;;;;;;6.59;100.00;100275.03;1692801;83;21039;-70
2022/09/24 03:56:15;;;;;;;10.10;6.95;;;;;;;6.59;100.00;100272.03;1712072;83;21382;-69
2022/09/24 03:58:46;;;;;;;12.25;7.25;;;;;;;6.61;100.00;100276.66;1709479;83;20999;-71
2022/09/24 04:01:19;;;;;;;10.08;6.15;;;;;;;6.65;100.00;100278.68;1709008;83;21587;-70
2022/09/24 04:03:42;;;;;;;9.98;7.05;;;;;;;6.69;100.00;100286.65;1701328;83;21590;-70
2022/09/24 04:06:10;;;;;;;11.08;6.37;;;;;;;6.74;100.00;100286.50;1700639;83;21082;-69
2022/09/24 04:08:37;;;;;;;10.50;7.15;;;;;;;6.76;100.00;100286.00;1711164;83;21106;-70
2022/09/24 04:11:04;;;;;;;10.68;7.00;;;;;;;6.74;100.00;100283.48;1714324;83;21019;-70
2022/09/24 04:13:31;;;;;;;9.35;5.75;;;;;;;6.79;100.00;100284.61;1697372;83;21066;-71
2022/09/24 04:16:03;;;;;;;9.78;6.05;;;;;;;6.85;100.00;100283.58;1700098;83;21512;-70
2022/09/24 04:18:30;;;;;;;10.72;6.85;;;;;;;6.94;100.00;100275.63;1708732;83;21546;-71
2022/09/24 04:20:59;;;;;;;8.78;5.80;;;;;;;7.02;100.00;100269.80;1717098;83;21015;-70
2022/09/24 04:23:29;;;;;;;10.08;6.55;;;;;;;7.06;100.00;100280.78;1713789;83;21004;-70
2022/09/24 04:25:56;;;;;;;8.68;5.92;;;;;;;7.12;100.00;100275.02;1713382;83;21030;-71
2022/09/24 04:28:24;;;;;;;8.60;5.28;;;;;;;7.20;100.00;100269.19;1695104;83;21076;-70
2022/09/24 04:30:51;;;;;;;6.80;5.12;;;;;;;7.26;100.00;100265.59;1700045;83;21023;-71
2022/09/24 04:33:19;;;;;;;7.20;4.90;;;;;;;7.36;100.00;100264.80;1717103;83;21066;-71
2022/09/24 04:35:46;;;;;;;7.97;5.42;;;;;;;7.42;100.00;100261.61;1694996;83;21172;-70
2022/09/24 04:38:13;;;;;;;7.30;5.12;;;;;;;7.50;100.00;100260.06;1703946;82;21051;-70
2022/09/24 04:40:40;;;;;;;7.30;5.22;;;;;;;7.58;100.00;100255.92;1709880;82;21015;-70
2022/09/24 04:43:07;;;;;;;7.90;5.28;;;;;;;7.69;100.00;100259.41;1715689;83;21035;-71
2022/09/24 04:45:36;;;;;;;7.22;5.17;;;;;;;7.77;100.00;100263.34;1704961;82;21059;-71
2022/09/24 04:48:03;;;;;;;7.92;5.22;;;;;;;7.85;100.00;100255.81;1706166;83;21363;-70
2022/09/24 04:50:33;;;;;;;8.78;5.78;;;;;;;7.93;100.00;100264.08;1704834;83;21067;-71
2022/09/24 04:53:01;;;;;;;8.90;5.80;;;;;;;8.07;100.00;100269.95;1681703;83;20997;-71
2022/09/24 04:55:28;;;;;;;9.53;5.85;;;;;;;8.25;100.00;100269.70;1698126;83;21010;-70
2022/09/24 04:57:56;;;;;;;7.42;5.05;;;;;;;8.40;100.00;100280.67;1716041;83;20969;-71
2022/09/24 05:00:24;;;;;;;9.38;5.33;;;;;;;8.62;100.00;100275.11;1716506;83;20989;-71
2022/09/24 05:03:02;;;;;;;8.88;5.45;;;;;;;8.70;100.00;100279.09;1714825;82;21069;-71
2022/09/24 05:05:30;;;;;;;8.93;5.90;;;;;;;8.80;100.00;100277.84;1714305;83;21011;-71
2022/09/24 05:07:58;;;;;;;7.22;5.60;;;;;;;8.91;100.00;100288.50;1714778;81;21048;-71
2022/09/24 05:10:27;;;;;;;9.60;5.83;;;;;;;9.07;100.00;100295.59;1711959;83;21490;-71
2022/09/24 05:12:54;;;;;;;8.98;5.80;;;;;;;9.29;100.00;100287.83;1712727;82;21055;-71
2022/09/24 05:15:22;;;;;;;19.20;6.20;;;;;;;9.45;100.00;100293.98;1711609;83;21508;-70
2022/09/24 05:17:49;;;;;;;9.38;6.12;;;;;;;9.60;100.00;100305.32;1703702;83;21039;-71
2022/09/24 05:20:16;;;;;;;9.10;6.25;;;;;;;9.56;100.00;100302.05;1702911;83;21012;-70
2022/09/24 05:22:46;;;;;;;9.05;6.47;;;;;;;9.61;100.00;100305.69;1698183;82;21011;-71
2022/09/24 05:25:16;;;;;;;9.08;6.20;;;;;;;9.72;100.00;100304.79;1708791;83;20989;-71
2022/09/24 05:27:52;;;;;;;10.90;6.47;;;;;;;9.87;100.00;100304.55;1685391;83;21058;-71
2022/09/24 05:30:22;;;;;;;9.20;6.15;;;;;;;9.99;100.00;100298.03;1705102;83;21022;-71
2022/09/24 05:32:54;;;;;;;9.08;6.22;;;;;;;10.02;100.00;100304.34;1695784;83;21050;-71
2022/09/24 05:35:20;;;;;;;10.08;6.50;;;;;;;10.04;100.00;100307.67;1715718;82;21011;-71
2022/09/24 05:37:48;;;;;;;10.53;6.40;;;;;;;10.23;100.00;100314.09;1715765;83;21456;-70
2022/09/24 05:43:02;;;;;;;7.03;5.42;;;;;;;10.29;100.00;100323.28;1708400;83;21051;-71
2022/09/24 05:45:31;;;;;;;8.45;5.87;;;;;;;10.53;100.00;100323.91;1701782;82;21202;-70
2022/09/24 05:47:59;;;;;;;8.88;6.65;;;;;;;10.59;100.00;100327.03;1686440;83;21008;-70
2022/09/24 05:50:26;;;;;;;8.60;6.03;;;;;;;10.68;100.00;100336.51;1709617;83;21082;-70
2022/09/24 05:52:53;;;;;;;8.98;6.42;;;;;;;10.70;100.00;100341.13;1707092;82;21082;-70
2022/09/24 05:55:20;;;;;;;10.05;6.17;;;;;;;10.74;100.00;100337.50;1712486;82;20987;-70
2022/09/24 05:57:48;;;;;;;7.70;6.15;;;;;;;10.87;100.00;100338.60;1709899;83;21047;-69
2022/09/24 06:00:15;;;;;;;7.28;6.05;;;;;;;11.00;100.00;100337.08;1718852;83;21075;-70
2022/09/24 06:02:43;;;;;;;8.55;6.30;;;;;;;11.02;100.00;100346.03;1716375;83;20998;-70
2022/09/24 06:05:11;;;;;;;8.45;6.28;;;;;;;11.18;100.00;100342.25;1690638;83;21508;-69
2022/09/24 06:07:38;;;;;;;9.43;6.00;;;;;;;11.25;100.00;100342.78;1693754;83;21023;-70
2022/09/24 06:10:07;;;;;;;7.42;5.90;;;;;;;11.09;100.00;100347.84;1714141;83;21065;-70
2022/09/24 06:12:35;;;;;;;9.88;6.22;;;;;;;11.31;100.00;100355.36;1715906;83;21106;-70
2022/09/24 06:15:05;;;;;;;7.78;6.10;;;;;;;11.21;100.00;100360.98;1716148;83;21005;-70
2022/09/24 06:17:32;;;;;;;6.92;6.05;;;;;;;11.27;100.00;100364.98;1703225;82;21058;-70
2022/09/24 06:19:59;;;;;;;7.92;5.97;;;;;;;11.42;100.00;100368.55;1709121;83;21058;-70
2022/09/24 06:22:27;;;;;;;8.18;5.83;;;;;;;11.45;100.00;100374.83;1702646;83;21087;-70
2022/09/24 06:24:54;;;;;;;9.13;5.87;;;;;;;11.51;100.00;100374.98;1720272;83;21035;-70
2022/09/24 06:27:21;;;;;;;8.45;6.17;;;;;;;11.65;100.00;100376.41;1711522;83;20988;-69
2022/09/24 06:33:48;;;;;;;7.55;5.58;;;;;;;11.85;100.00;100373.28;1696169;83;21028;-70
2022/09/24 06:36:14;;;;;;;6.80;5.28;;;;;;;11.77;100.00;100378.36;1695842;83;21117;-70
2022/09/24 06:38:41;;;;;;;5.87;4.62;;;;;;;11.71;100.00;100379.97;1705436;83;21067;-70
2022/09/24 06:41:08;;;;;;;6.83;4.92;;;;;;;11.65;100.00;100373.83;1714499;83;21138;-70
2022/09/24 06:43:36;;;;;;;6.67;5.03;;;;;;;11.62;100.00;100375.30;1713981;83;21095;-70
2022/09/24 06:46:03;;;;;;;6.83;5.15;;;;;;;11.60;100.00;100377.12;1689315;84;21085;-70
2022/09/24 06:48:31;;;;;;;6.78;4.80;;;;;;;11.51;100.00;100369.83;1697246;83;21537;-69
2022/09/24 06:50:58;;;;;;;5.80;4.80;;;;;;;11.65;100.00;100372.55;1701811;83;21594;-70
2022/09/24 06:53:26;;;;;;;5.42;4.15;;;;;;;11.63;100.00;100373.91;1714245;83;21485;-70
2022/09/24 06:55:58;;;;;;;5.60;4.15;;;;;;;11.72;100.00;100380.36;1687817;84;21092;-69
2022/09/24 06:58:26;;;;;;;5.78;4.25;;;;;;;11.71;100.00;100385.59;1670767;84;21512;-70
2022/09/24 07:00:57;;;;;;;5.22;3.90;;;;;;;11.60;100.00;100378.41;1707116;83;21062;-70
2022/09/24 07:03:30;;;;;;;4.90;3.80;;;;;;;11.64;100.00;100382.50;1692115;83;20989;-71
2022/09/24 07:06:01;;;;;;;5.65;3.80;;;;;;;11.90;100.00;100386.36;1703830;82;21557;-70
2022/09/24 07:08:28;;;;;;;5.03;3.85;;;;;;;11.92;100.00;100392.27;1693026;83;21180;-70
2022/09/24 07:10:56;;;;;;;4.90;3.45;;;;;;;12.27;100.00;100388.77;1683015;83;21024;-70
2022/09/24 07:13:24;;;;;;;5.30;4.30;;;;;;;12.36;100.00;100398.12;1704081;82;21070;-70
2022/09/24 07:15:52;;;;;;;5.30;4.03;;;;;;;12.56;100.00;100403.51;1722929;81;21134;-70
2022/09/24 07:18:21;;;;;;;4.58;3.62;;;;;;;12.79;100.00;100406.15;1716145;83;21575;-70
2022/09/24 07:20:54;;;;;;;5.15;3.70;;;;;;;12.96;100.00;100416.83;1706330;82;21075;-70
2022/09/24 07:23:21;;;;;;;4.45;3.62;;;;;;;13.13;100.00;100418.47;1714752;82;21105;-69
2022/09/24 07:25:53;;;;;;;4.05;3.60;;;;;;;13.13;100.00;100421.05;1702694;83;21123;-69
2022/09/24 07:28:19;;;;;;;4.72;4.08;;;;;;;13.20;100.00;100418.97;1720929;82;21093;-69
2022/09/24 07:30:58;;;;;;;5.60;3.90;;;;;;;13.14;100.00;100418.03;1708362;83;21527;-70
2022/09/24 07:33:24;;;;;;;5.17;4.00;;;;;;;13.05;100.00;100419.36;1712794;83;21539;-71
2022/09/24 07:35:51;;;;;;;6.08;4.50;;;;;;;12.93;100.00;100420.04;1709323;82;21570;-70
2022/09/24 07:38:18;;;;;;;5.92;4.40;;;;;;;12.96;100.00;100422.00;1704750;83;21562;-70
2022/09/24 07:40:45;;;;;;;5.03;4.22;;;;;;;12.95;100.00;100419.49;1700767;83;21110;-70
2022/09/24 07:43:13;;;;;;;5.58;4.25;;;;;;;12.95;100.00;100422.91;1715903;83;21110;-69
2022/09/24 07:45:41;;;;;;;5.83;4.78;;;;;;;12.95;100.00;100415.16;1700769;83;21052;-70
2022/09/24 07:48:11;;;;;;;5.12;4.40;;;;;;;12.96;100.00;100420.70;1699519;83;21079;-70
2022/09/24 07:50:40;;;;;;;5.45;4.25;;;;;;;13.03;100.00;100419.91;1707185;83;21699;-70
2022/09/24 07:53:12;;;;;;;5.42;4.35;;;;;;;13.11;100.00;100423.36;1709982;83;21058;-70
2022/09/24 07:55:39;;;;;;;5.50;4.92;;;;;;;13.21;100.00;100418.04;1706318;83;21043;-70
2022/09/24 07:58:11;;;;;;;6.25;4.87;;;;;;;13.31;100.00;100415.34;1702275;83;21106;-69
2022/09/24 08:00:37;;;;;;;6.00;4.92;;;;;;;13.61;100.00;100414.50;1700049;83;21117;-70
2022/09/24 08:03:04;;;;;;;6.65;5.28;;;;;;;13.69;100.00;100419.23;1708701;84;21079;-70
2022/09/24 08:05:32;;;;;;;7.92;5.60;;;;;;;13.69;100.00;100414.89;1701656;83;21066;-69
2022/09/24 08:07:59;;;;;;;5.87;4.78;;;;;;;13.40;100.00;100423.02;1700709;83;21034;-69
2022/09/24 08:10:27;;;;;;;5.83;5.15;;;;;;;13.40;100.00;100421.29;1708879;83;21109;-70
2022/09/24 08:12:56;;;;;;;5.75;5.15;;;;;;;13.44;100.00;100414.16;1711763;83;21082;-70
2022/09/24 08:15:23;;;;;;;6.30;5.50;;;;;;;13.71;100.00;100410.92;1683532;84;21117;-70
2022/09/24 08:17:50;;;;;;;8.05;6.20;;;;;;;13.79;100.00;100422.48;1704291;83;21042;-70
2022/09/24 08:20:17;;;;;;;7.15;5.72;;;;;;;13.73;100.00;100429.77;1705569;83;21568;-70
2022/09/24 08:22:44;;;;;;;8.95;6.62;;;;;;;13.82;100.00;100420.16;1703508;83;21114;-69
2022/09/24 08:25:11;;;;;;;7.70;6.08;;;;;;;13.86;100.00;100425.52;1716115;83;21046;-70
2022/09/24 08:27:38;;;;;;;6.42;5.72;;;;;;;14.10;100.00;100428.41;1702800;83;21038;-69
2022/09/24 08:30:07;;;;;;;9.05;6.47;;;;;;;14.07;100.00;100433.78;1717820;83;21342;-68
2022/09/24 08:32:33;;;;;;;9.98;7.03;;;;;;;13.87;100.00;100433.67;1709301;83;21028;-70
2022/09/24 08:35:01;;;;;;;9.35;6.72;;;;;;;13.86;100.00;100433.28;1710088;83;21046;-70
2022/09/24 08:37:28;;;;;;;8.80;6.75;;;;;;;13.89;100.00;100423.20;1720632;82;21087;-71
2022/09/24 08:39:56;;;;;;;9.40;7.05;;;;;;;14.05;100.00;100424.42;1720153;83;21098;-71
2022/09/24 08:42:32;;;;;;;8.95;6.75;;;;;;;14.09;100.00;100427.20;1705712;83;21079;-71
2022/09/24 08:48:01;;;;;;;9.23;7.10;;;;;;;14.87;100.00;100435.38;1685283;82;21074;-71
2022/09/24 08:50:32;;;;;;;8.93;7.15;;;;;;;15.06;100.00;100440.21;1708127;83;21102;-71
2022/09/24 08:53:40;;;;;;;10.28;7.30;;;;;;;14.99;100.00;100442.38;1698388;83;21047;-71
2022/09/24 08:56:09;;;;;;;10.70;7.50;;;;;;;15.08;100.00;100440.12;1706201;83;21177;-70
2022/09/24 08:58:58;;;;;;;10.05;7.08;;;;;;;14.83;100.00;100448.16;1711573;83;21055;-71
2022/09/24 09:01:37;;;;;;;22.35;14.47;;;;;;;14.84;100.00;100444.63;1695755;83;21074;-72
2022/09/24 09:04:27;;;;;;;12.25;8.75;;;;;;;14.77;100.00;100437.70;1701357;83;21133;-72
2022/09/24 09:07:23;;;;;;;10.88;7.75;;;;;;;14.76;100.00;100438.66;1699169;83;21558;-71
2022/09/24 09:10:27;;;;;;;11.15;8.28;;;;;;;14.81;100.00;100439.18;1714178;83;21063;-71
2022/09/24 09:13:02;;;;;;;10.98;8.45;;;;;;;14.68;100.00;100434.86;1709451;83;21090;-71
2022/09/24 09:15:35;;;;;;;10.10;8.15;;;;;;;15.00;100.00;100424.61;1708908;83;21105;-71
2022/09/24 09:18:14;;;;;;;9.37;7.57;;;;;;;15.28;100.00;100429.29;1703663;83;21051;-71
2022/09/24 09:20:44;;;;;;;8.93;7.55;;;;;;;15.74;100.00;100439.27;1690858;83;21018;-70
2022/09/24 09:23:16;;;;;;;8.83;7.08;;;;;;;16.15;100.00;100440.00;1707839;83;21110;-70
2022/09/24 09:25:57;;;;;;;8.65;6.92;;;;;;;15.92;100.00;100443.70;1703223;83;21038;-71
2022/09/24 09:28:26;;;;;;;10.80;7.60;;;;;;;15.69;100.00;100437.41;1703473;83;21079;-71
2022/09/24 09:31:10;;;;;;;8.83;7.47;;;;;;;15.86;100.00;100433.73;1699957;83;21133;-71
2022/09/24 09:37:04;;;;;;;10.90;7.33;;;;;;;16.19;100.00;100425.39;1706252;81;20143;-71
2022/09/24 09:39:43;;;;;;;8.05;7.12;;;;;;;16.42;100.00;100429.02;1722595;83;21078;-71
2022/09/24 09:42:31;;;;;;;9.28;7.40;;;;;;;16.64;100.00;100436.58;1710603;82;21176;-71
2022/09/24 09:45:01;;;;;;;10.53;7.87;;;;;;;16.99;100.00;100434.11;1730219;81;21570;-72
2022/09/24 09:47:55;;;;;;;8.95;7.87;;;;;;;16.94;100.00;100439.27;1760321;80;21017;-71
2022/09/24 09:50:41;;;;;;;9.08;6.75;;;;;;;16.72;100.00;100430.37;1757716;80;21116;-71
2022/09/24 09:53:23;;;;;;;8.48;7.05;;;;;;;16.82;100.00;100430.10;1683740;81;21021;-71
2022/09/24 09:55:59;;;;;;;9.03;6.62;;;;;;;17.05;100.00;100435.41;1714785;82;21606;-71
2022/09/24 09:58:30;;;;;;;6.78;6.08;;;;;;;17.29;100.00;100431.98;1719811;83;21503;-71
2022/09/24 10:01:12;;;;;;;7.28;5.90;;;;;;;17.39;100.00;100428.58;1762351;80;21031;-71
2022/09/24 10:03:48;;;;;;;6.83;5.33;;;;;;;16.92;100.00;100435.48;1754569;80;21576;-71
2022/09/24 10:06:26;;;;;;;5.42;4.92;;;;;;;16.85;100.00;100426.92;1751908;80;21053;-72
2022/09/24 10:08:53;;;;;;;8.08;6.55;;;;;;;16.90;100.00;100430.86;1756902;81;21018;-72
2022/09/24 10:11:22;;;;;;;7.67;6.17;;;;;;;17.17;100.00;100426.75;1757154;79;21073;-72
2022/09/24 10:14:12;;;;;;;6.60;5.50;;;;;;;17.51;100.00;100420.81;1713117;81;21115;-71
2022/09/24 10:16:49;;;;;;;6.58;4.95;;;;;;;17.63;100.00;100424.62;1717369;82;21162;-71
2022/09/24 10:19:25;;;;;;;4.75;4.20;;;;;;;17.82;100.00;100418.02;1754944;80;21052;-73
2022/09/24 10:21:56;;;;;;;4.92;4.42;;;;;;;17.33;100.00;100430.33;1749394;81;21546;-69
2022/09/24 10:24:26;;;;;;;4.67;4.20;;;;;;;16.79;100.00;100424.28;1757357;80;21023;-69
2022/09/24 10:26:53;;;;;;;5.08;4.58;;;;;;;16.42;100.00;100432.05;1753176;81;21014;-69
2022/09/24 10:32:25;;;;;;;2.22;2.02;;;;;;;15.40;100.00;100444.05;1712669;83;21060;-68
2022/09/24 10:35:00;;;;;;;4.33;2.10;;;;;;;13.74;100.00;100430.95;1716034;83;21587;-69
2022/09/24 10:37:28;;;;;;;7.15;3.67;;;;;;;12.91;100.00;100418.83;1755002;80;21093;-68
2022/09/24 10:40:11;;;;;;;2.92;2.15;;;;;;;12.31;100.00;100403.17;1699146;82;21017;-69
2022/09/24 10:42:38;;;;;;;2.10;1.90;;;;;;;11.93;100.00;100380.20;1741113;81;21024;-68
2022/09/24 10:45:10;;;;;;;4.28;1.70;;;;;;;11.75;100.00;100354.40;1748025;82;21016;-70
2022/09/24 10:48:10;;;;;;;2.70;2.40;;;;;;;11.74;100.00;100335.98;1723858;82;21519;-70
2022/09/24 10:50:55;;;;;;;3.02;2.12;;;;;;;11.85;100.00;100327.69;1729231;82;21044;-69
2022/09/24 10:53:48;;;;;;;2.75;2.40;;;;;;;12.03;100.00;100316.89;1705828;81;21104;-70
2022/09/24 10:56:38;;;;;;;4.58;2.60;;;;;;;12.48;100.00;100314.48;1722991;80;21049;-70
2022/09/24 10:59:36;;;;;;;5.40;2.45;;;;;;;13.01;100.00;100315.80;1696578;83;21015;-69
2022/09/24 11:02:33;;;;;;;4.20;3.05;;;;;;;13.33;100.00;100321.72;1710687;81;21055;-69
2022/09/24 11:05:24;;;;;;;2.70;2.50;;;;;;;13.70;100.00;100326.47;1720084;82;21073;-69
2022/09/24 11:08:05;;;;;;;3.12;2.83;;;;;;;13.94;100.00;100342.27;1721070;82;21533;-68
2022/09/24 11:11:08;;;;;;;2.70;2.50;;;;;;;14.14;100.00;100348.34;1716186;82;21112;-68
2022/09/24 11:13:58;;;;;;;3.33;2.90;;;;;;;14.13;100.00;100359.64;1718568;82;21068;-69
2022/09/24 11:16:39;;;;;;;4.15;3.75;;;;;;;14.24;100.00;100365.45;1720399;82;21079;-69
2022/09/24 11:19:12;;;;;;;5.67;4.70;;;;;;;14.37;100.00;100364.22;1718471;82;21102;-70
2022/09/24 11:22:14;;;;;;;5.78;5.17;;;;;;;14.57;100.00;100387.14;1715470;82;21045;-68
2022/09/24 11:24:52;;;;;;;8.25;6.20;;;;;;;14.89;100.00;100387.34;1721972;82;21126;-68
2022/09/24 11:27:40;;;;;;;7.65;5.50;;;;;;;15.05;100.00;100378.94;1726491;82;21118;-68
2022/09/24 11:30:31;;;;;;;6.97;5.05;;;;;;;15.03;100.00;100391.99;1716579;82;21064;-68
2022/09/24 11:33:41;;;;;;;6.72;5.60;;;;;;;14.99;100.00;100414.33;1646657;85;21716;-69
2022/09/24 11:36:35;;;;;;;5.67;5.17;;;;;;;14.57;100.00;100416.92;1720099;81;21072;-68
2022/09/24 11:39:36;;;;;;;6.40;5.67;;;;;;;14.13;100.00;100412.70;1719141;81;21044;-69
2022/09/24 11:42:17;;;;;;;4.72;4.25;;;;;;;13.77;100.00;100413.97;1697509;83;21089;-68
2022/09/24 11:45:15;;;;;;;5.20;4.40;;;;;;;13.39;100.00;100424.78;1722066;81;21004;-67
2022/09/24 11:48:32;;;;;;;7.03;5.58;;;;;;;13.20;100.00;100403.00;1723267;83;21092;-69
2022/09/24 11:51:22;;;;;;;10.13;6.10;;;;;;;13.25;100.00;100384.63;1716482;81;21051;-68
2022/09/24 11:53:58;;;;;;;7.33;6.00;;;;;;;13.57;100.00;100367.28;1724099;82;21045;-67
2022/09/24 11:56:43;;;;;;;5.33;4.33;;;;;;;13.89;100.00;100370.16;1712651;82;21088;-67
2022/09/24 11:59:36;;;;;;;4.67;4.17;;;;;;;13.93;100.00;100388.46;1712162;82;21061;-68
2022/09/24 12:02:23;;;;;;;5.95;4.08;;;;;;;14.02;100.00;100399.57;1716432;82;21045;-69
2022/09/24 12:05:08;;;;;;;6.87;3.85;;;;;;;13.82;100.00;100408.52;1728432;81;21542;-68
2022/09/24 12:07:56;;;;;;;3.67;3.27;;;;;;;13.63;100.00;100405.72;1723335;81;21047;-68